Normandie — FNNO — position and weather

sailwx.info

Track history (hours):
 
Tides and Currents Weather Stations Pressure Air Temp Water Temp Dewpoint Dewpoint Depression Visibility Wind Speed Wind Dir Waves Ship Positions

Normandie

Operator: Brittany Ferries

Last reported at 2020-Jan-25 03:30 UTC. Time now 2020-Jan-25 05:51 UTC.
Position N 49°41' W 000°27'.

Length 161 m; beam 27 m.

Type: Ship. MMSI: 227273000.

Date/timePositionNaut miles runAvg speedWind from/ knotsBaromVisibWave heightAir tempDewpointWater temp
2020-Jan-25 03:30N 49°41' W 000°27'6213.9
2020-Jan-24 23:00N 50°40' W 000°60'10 3.8
2020-Jan-24 20:30N 50°49' W 001°06'0 0.0
2020-Jan-24 20:00N 50°49' W 001°06'0 0.0
2020-Jan-24 19:30N 50°49' W 001°06'5414.0
2020-Jan-24 15:40N 49°58' W 000°37'1116.7
2020-Jan-24 15:00N 49°48' W 000°31'1717.2
2020-Jan-24 14:00N 49°32' W 000°22'15 7.4
2020-Jan-24 11:59N 49°17' W 000°15'0 0.0
2020-Jan-24 10:59N 49°17' W 000°15'0 0.0
2020-Jan-24 10:29N 49°17' W 000°15'0 0.0
2020-Jan-24 09:59N 49°17' W 000°15'0 0.0
2020-Jan-24 07:31N 49°17' W 000°15'0 0.0
2020-Jan-24 07:01N 49°17' W 000°15'4011.3
2020-Jan-24 03:29N 49°56' W 000°33'4714.5
2020-Jan-24 00:13N 50°40' W 000°60'913.0
2020-Jan-23 23:30N 50°48' W 001°07'1 0.7
2020-Jan-23 22:00N 50°49' W 001°06'8515.5
2020-Jan-23 16:30N 49°28' W 000°21'1211.6
2020-Jan-23 15:30N 49°17' W 000°15'0 0.0
2020-Jan-23 14:00N 49°17' W 000°15'2416.2
2020-Jan-23 12:30N 49°41' W 000°25'6810.5
2020-Jan-23 06:00N 50°44' W 001°04'814.5
2020-Jan-23 05:28N 50°37' W 000°58'61 5.8
2020-Jan-22 19:00N 49°40' W 000°25'7318.3
2020-Jan-22 15:00N 50°49' W 001°06'3 1.7
2020-Jan-22 13:00N 50°45' W 001°05'7017.5
2020-Jan-22 09:00N 49°40' W 000°25'918.0
2020-Jan-22 08:30N 49°32' W 000°21'9 1.9
2020-Jan-22 04:01N 49°40' W 000°23'917.2
2020-Jan-22 03:30N 49°49' W 000°26'5816.5
2020-Jan-22 00:00N 50°42' W 001°01'3 0.9
2020-Jan-21 20:30N 50°39' W 000°59'7510.0
2020-Jan-21 13:00N 49°28' W 000°19'2818.5
2020-Jan-21 11:30N 49°55' W 000°32'5814.5
2020-Jan-21 07:30N 50°49' W 001°06'0 0.0
2020-Jan-21 07:00N 50°49' W 001°06'3010.0
2020-Jan-21 03:57N 50°21' W 000°46'2811.3
2020-Jan-21 01:30N 49°54' W 000°34'611.4
2020-Jan-21 01:00N 49°49' W 000°31'34 8.4
2020-Jan-20 21:00N 49°17' W 000°15'3112.2
2020-Jan-20 18:30N 49°46' W 000°29'6117.3
2020-Jan-20 15:00N 50°43' W 001°03'6 3.9
2020-Jan-20 13:30N 50°49' W 001°06'1610.4
2020-Jan-20 12:00N 50°34' W 000°56'4618.4
2020-Jan-20 09:31N 49°52' W 000°28'918.6
2020-Jan-20 09:00N 49°43' W 000°24'2613.2
2020-Jan-20 07:01N 49°17' W 000°15'0 0.0
2020-Jan-20 06:00N 49°17' W 000°15'0 0.4
2020-Jan-20 05:30N 49°18' W 000°15'917.3
2020-Jan-20 05:00N 49°26' W 000°17'2215.0
2020-Jan-20 03:30N 49°47' W 000°28'6014.9
2020-Jan-19 23:30N 50°43' W 001°01'6 2.4
2020-Jan-19 21:00N 50°48' W 001°07'7717.2
2020-Jan-19 16:30N 49°36' W 000°22'6 1.7
2020-Jan-19 13:00N 49°30' W 000°20'8218.3
2020-Jan-19 08:31N 50°47' W 001°06'2 0.8
2020-Jan-19 06:30N 50°49' W 001°06'6511.8
2020-Jan-19 01:00N 49°48' W 000°29'510.2
2020-Jan-19 00:30N 49°44' W 000°26'2710.7
2020-Jan-18 22:00N 49°18' W 000°15'1 1.0
2020-Jan-18 21:30N 49°17' W 000°15'0 0.0
2020-Jan-18 20:31N 49°17' W 000°15'1515.5
2020-Jan-18 19:31N 49°32' W 000°23'6618.8
2020-Jan-18 16:02N 50°34' W 000°56'918.0
2020-Jan-18 15:30N 50°43' W 001°02'713.4
2020-Jan-18 15:00N 50°49' W 001°07'0 0.3
2020-Jan-18 13:30N 50°49' W 001°06'5614.5
2020-Jan-18 09:41N 49°57' W 000°34'4112.8
2020-Jan-18 06:26N 49°17' W 000°15'0 0.0
2020-Jan-18 05:32N 49°17' W 000°15'9710.2
2020-Jan-17 20:00N 50°49' W 001°06'9711.4
2020-Jan-17 11:30N 49°17' W 000°15'0 0.0
2020-Jan-17 08:28N 49°17' W 000°15'0 0.0
2020-Jan-17 07:00N 49°17' W 000°15'17 8.5
2020-Jan-17 05:00N 49°34' W 000°21'713.3
2020-Jan-17 04:31N 49°40' W 000°24'713.4
2020-Jan-17 04:01N 49°47' W 000°27'5113.9
2020-Jan-17 00:19N 50°35' W 000°55'51 7.5
2020-Jan-16 17:30N 49°46' W 000°30'1020.3
2020-Jan-16 17:00N 49°37' W 000°24'20 6.7
2020-Jan-16 14:00N 49°17' W 000°15'1818.2
2020-Jan-16 13:00N 49°35' W 000°22'918.9
2020-Jan-16 12:30N 49°44' W 000°27'1019.4
2020-Jan-16 12:01N 49°53' W 000°33'4718.8
2020-Jan-16 09:30N 50°37' W 000°58'1312.7
2020-Jan-16 08:30N 50°49' W 001°06'50 8.7
2020-Jan-16 02:47N 50°02' W 000°38'414.0
2020-Jan-16 02:29N 49°58' W 000°36'1313.6
2020-Jan-16 01:30N 49°46' W 000°29'2813.9
2020-Jan-15 23:30N 49°20' W 000°14'2 2.2
2020-Jan-15 22:30N 49°17' W 000°15'2610.4
2020-Jan-15 20:01N 49°42' W 000°27'918.6
2020-Jan-15 19:30N 49°51' W 000°31'6211.2
2020-Jan-15 14:00N 50°49' W 001°06'7516.6
2020-Jan-15 09:31N 49°39' W 000°24'1818.3
2020-Jan-15 08:30N 49°21' W 000°15'12 3.5
2020-Jan-15 05:01N 49°34' W 000°18'  
Track history (hours):
 
Tides and Currents Weather Stations Pressure Air Temp Water Temp Dewpoint Dewpoint Depression Visibility Wind Speed Wind Dir Waves Ship Positions

Normandie

Operator: Brittany Ferries

Last reported at 2020-Jan-25 03:30 UTC. Time now 2020-Jan-25 05:51 UTC.
Position N 49°41' W 000°27'.

Length 161 m; beam 27 m.

Type: Ship. MMSI: 227273000.

Date/timePositionNaut miles runAvg speedWind from/ knotsBaromVisibWave heightAir tempDewpointWater temp
2020-Jan-25 03:30N 49°41' W 000°27'6213.9
2020-Jan-24 23:00N 50°40' W 000°60'10 3.8
2020-Jan-24 20:30N 50°49' W 001°06'0 0.0
2020-Jan-24 20:00N 50°49' W 001°06'0 0.0
2020-Jan-24 19:30N 50°49' W 001°06'5414.0
2020-Jan-24 15:40N 49°58' W 000°37'1116.7
2020-Jan-24 15:00N 49°48' W 000°31'1717.2
2020-Jan-24 14:00N 49°32' W 000°22'15 7.4
2020-Jan-24 11:59N 49°17' W 000°15'0 0.0
2020-Jan-24 10:59N 49°17' W 000°15'0 0.0
2020-Jan-24 10:29N 49°17' W 000°15'0 0.0
2020-Jan-24 09:59N 49°17' W 000°15'0 0.0
2020-Jan-24 07:31N 49°17' W 000°15'0 0.0
2020-Jan-24 07:01N 49°17' W 000°15'4011.3
2020-Jan-24 03:29N 49°56' W 000°33'4714.5
2020-Jan-24 00:13N 50°40' W 000°60'913.0
2020-Jan-23 23:30N 50°48' W 001°07'1 0.7
2020-Jan-23 22:00N 50°49' W 001°06'8515.5
2020-Jan-23 16:30N 49°28' W 000°21'1211.6
2020-Jan-23 15:30N 49°17' W 000°15'0 0.0
2020-Jan-23 14:00N 49°17' W 000°15'2416.2
2020-Jan-23 12:30N 49°41' W 000°25'6810.5
2020-Jan-23 06:00N 50°44' W 001°04'814.5
2020-Jan-23 05:28N 50°37' W 000°58'61 5.8
2020-Jan-22 19:00N 49°40' W 000°25'7318.3
2020-Jan-22 15:00N 50°49' W 001°06'3 1.7
2020-Jan-22 13:00N 50°45' W 001°05'7017.5
2020-Jan-22 09:00N 49°40' W 000°25'918.0
2020-Jan-22 08:30N 49°32' W 000°21'9 1.9
2020-Jan-22 04:01N 49°40' W 000°23'917.2
2020-Jan-22 03:30N 49°49' W 000°26'5816.5
2020-Jan-22 00:00N 50°42' W 001°01'3 0.9
2020-Jan-21 20:30N 50°39' W 000°59'7510.0
2020-Jan-21 13:00N 49°28' W 000°19'2818.5
2020-Jan-21 11:30N 49°55' W 000°32'5814.5
2020-Jan-21 07:30N 50°49' W 001°06'0 0.0
2020-Jan-21 07:00N 50°49' W 001°06'3010.0
2020-Jan-21 03:57N 50°21' W 000°46'2811.3
2020-Jan-21 01:30N 49°54' W 000°34'611.4
2020-Jan-21 01:00N 49°49' W 000°31'34 8.4
2020-Jan-20 21:00N 49°17' W 000°15'3112.2
2020-Jan-20 18:30N 49°46' W 000°29'6117.3
2020-Jan-20 15:00N 50°43' W 001°03'6 3.9
2020-Jan-20 13:30N 50°49' W 001°06'1610.4
2020-Jan-20 12:00N 50°34' W 000°56'4618.4
2020-Jan-20 09:31N 49°52' W 000°28'918.6
2020-Jan-20 09:00N 49°43' W 000°24'2613.2
2020-Jan-20 07:01N 49°17' W 000°15'0 0.0
2020-Jan-20 06:00N 49°17' W 000°15'0 0.4
2020-Jan-20 05:30N 49°18' W 000°15'917.3
2020-Jan-20 05:00N 49°26' W 000°17'2215.0
2020-Jan-20 03:30N 49°47' W 000°28'6014.9
2020-Jan-19 23:30N 50°43' W 001°01'6 2.4
2020-Jan-19 21:00N 50°48' W 001°07'7717.2
2020-Jan-19 16:30N 49°36' W 000°22'6 1.7
2020-Jan-19 13:00N 49°30' W 000°20'8218.3
2020-Jan-19 08:31N 50°47' W 001°06'2 0.8
2020-Jan-19 06:30N 50°49' W 001°06'6511.8
2020-Jan-19 01:00N 49°48' W 000°29'510.2
2020-Jan-19 00:30N 49°44' W 000°26'2710.7
2020-Jan-18 22:00N 49°18' W 000°15'1 1.0
2020-Jan-18 21:30N 49°17' W 000°15'0 0.0
2020-Jan-18 20:31N 49°17' W 000°15'1515.5
2020-Jan-18 19:31N 49°32' W 000°23'6618.8
2020-Jan-18 16:02N 50°34' W 000°56'918.0
2020-Jan-18 15:30N 50°43' W 001°02'713.4
2020-Jan-18 15:00N 50°49' W 001°07'0 0.3
2020-Jan-18 13:30N 50°49' W 001°06'5614.5
2020-Jan-18 09:41N 49°57' W 000°34'4112.8
2020-Jan-18 06:26N 49°17' W 000°15'0 0.0
2020-Jan-18 05:32N 49°17' W 000°15'9710.2
2020-Jan-17 20:00N 50°49' W 001°06'9711.4
2020-Jan-17 11:30N 49°17' W 000°15'0 0.0
2020-Jan-17 08:28N 49°17' W 000°15'0 0.0
2020-Jan-17 07:00N 49°17' W 000°15'17 8.5
2020-Jan-17 05:00N 49°34' W 000°21'713.3
2020-Jan-17 04:31N 49°40' W 000°24'713.4
2020-Jan-17 04:01N 49°47' W 000°27'5113.9
2020-Jan-17 00:19N 50°35' W 000°55'51 7.5
2020-Jan-16 17:30N 49°46' W 000°30'1020.3
2020-Jan-16 17:00N 49°37' W 000°24'20 6.7
2020-Jan-16 14:00N 49°17' W 000°15'1818.2
2020-Jan-16 13:00N 49°35' W 000°22'918.9
2020-Jan-16 12:30N 49°44' W 000°27'1019.4
2020-Jan-16 12:01N 49°53' W 000°33'4718.8
2020-Jan-16 09:30N 50°37' W 000°58'1312.7
2020-Jan-16 08:30N 50°49' W 001°06'50 8.7
2020-Jan-16 02:47N 50°02' W 000°38'414.0
2020-Jan-16 02:29N 49°58' W 000°36'1313.6
2020-Jan-16 01:30N 49°46' W 000°29'2813.9
2020-Jan-15 23:30N 49°20' W 000°14'2 2.2
2020-Jan-15 22:30N 49°17' W 000°15'2610.4
2020-Jan-15 20:01N 49°42' W 000°27'918.6
2020-Jan-15 19:30N 49°51' W 000°31'6211.2
2020-Jan-15 14:00N 50°49' W 001°06'7516.6
2020-Jan-15 09:31N 49°39' W 000°24'1818.3
2020-Jan-15 08:30N 49°21' W 000°15'12 3.5
2020-Jan-15 05:01N 49°34' W 000°18'  

Dump ship's entire track history